sensor_id;sensor_type;location;lat;lon;timestamp;temperature;humidity
5796;DHT22;2924;51.458;7.046;2023-02-20T00:00:29;4.40;99.90
5796;DHT22;2924;51.458;7.046;2023-02-20T00:02:55;4.40;99.90
5796;DHT22;2924;51.458;7.046;2023-02-20T00:05:21;4.50;99.90
5796;DHT22;2924;51.458;7.046;2023-02-20T00:07:47;4.50;99.90
5796;DHT22;2924;51.458;7.046;2023-02-20T00:10:13;4.50;99.90
5796;DHT22;2924;51.458;7.046;2023-02-20T00:12:39;4.50;99.90
5796;DHT22;2924;51.458;7.046;2023-02-20T00:15:06;4.50;99.90
5796;DHT22;2924;51.458;7.046;2023-02-20T00:17:32;4.60;99.90
5796;DHT22;2924;51.458;7.046;2023-02-20T00:19:57;4.60;99.90
5796;DHT22;2924;51.458;7.046;2023-02-20T00:22:24;4.70;99.90
5796;DHT22;2924;51.458;7.046;2023-02-20T00:24:50;4.70;99.90
5796;DHT22;2924;51.458;7.046;2023-02-20T00:27:16;4.70;99.90
5796;DHT22;2924;51.458;7.046;2023-02-20T00:29:43;4.70;99.90
5796;DHT22;2924;51.458;7.046;2023-02-20T00:32:09;4.70;99.90
5796;DHT22;2924;51.458;7.046;2023-02-20T00:34:34;4.80;99.90
5796;DHT22;2924;51.458;7.046;2023-02-20T00:37:00;4.80;99.90
5796;DHT22;2924;51.458;7.046;2023-02-20T00:39:25;4.90;99.90
5796;DHT22;2924;51.458;7.046;2023-02-20T00:41:51;4.90;99.90
5796;DHT22;2924;51.458;7.046;2023-02-20T00:44:17;5.00;99.90
5796;DHT22;2924;51.458;7.046;2023-02-20T00:46:42;5.00;99.90
5796;DHT22;2924;51.458;7.046;2023-02-20T00:49:08;5.10;99.90
5796;DHT22;2924;51.458;7.046;2023-02-20T00:51:33;5.10;99.90
5796;DHT22;2924;51.458;7.046;2023-02-20T00:54:01;5.10;99.90
5796;DHT22;2924;51.458;7.046;2023-02-20T00:56:26;5.10;99.90
5796;DHT22;2924;51.458;7.046;2023-02-20T00:58:52;5.10;99.90
5796;DHT22;2924;51.458;7.046;2023-02-20T01:01:18;5.20;99.90
5796;DHT22;2924;51.458;7.046;2023-02-20T01:03:43;5.30;99.90
5796;DHT22;2924;51.458;7.046;2023-02-20T01:06:16;5.20;99.90
5796;DHT22;2924;51.458;7.046;2023-02-20T01:08:42;5.20;99.90
5796;DHT22;2924;51.458;7.046;2023-02-20T01:11:07;5.20;99.90
5796;DHT22;2924;51.458;7.046;2023-02-20T01:13:33;5.20;99.90
5796;DHT22;2924;51.458;7.046;2023-02-20T01:15:59;5.20;99.90
5796;DHT22;2924;51.458;7.046;2023-02-20T01:18:25;5.20;99.90
5796;DHT22;2924;51.458;7.046;2023-02-20T01:20:51;5.20;99.90
5796;DHT22;2924;51.458;7.046;2023-02-20T01:23:17;5.20;99.90
5796;DHT22;2924;51.458;7.046;2023-02-20T01:25:43;5.20;99.90
5796;DHT22;2924;51.458;7.046;2023-02-20T01:28:08;5.20;99.90
5796;DHT22;2924;51.458;7.046;2023-02-20T01:30:34;5.30;99.90
5796;DHT22;2924;51.458;7.046;2023-02-20T01:33:00;5.30;99.90
5796;DHT22;2924;51.458;7.046;2023-02-20T01:35:25;5.30;99.90
5796;DHT22;2924;51.458;7.046;2023-02-20T01:37:55;5.30;99.90
5796;DHT22;2924;51.458;7.046;2023-02-20T01:40:22;5.30;99.90
5796;DHT22;2924;51.458;7.046;2023-02-20T01:42:48;5.30;99.90
5796;DHT22;2924;51.458;7.046;2023-02-20T01:47:39;5.30;99.90
5796;DHT22;2924;51.458;7.046;2023-02-20T01:50:06;5.30;99.90
5796;DHT22;2924;51.458;7.046;2023-02-20T01:52:34;5.30;99.90
5796;DHT22;2924;51.458;7.046;2023-02-20T01:57:50;5.30;99.90
5796;DHT22;2924;51.458;7.046;2023-02-20T02:00:19;5.30;99.90
5796;DHT22;2924;51.458;7.046;2023-02-20T02:02:49;5.30;99.90
5796;DHT22;2924;51.458;7.046;2023-02-20T02:05:16;5.30;99.90
5796;DHT22;2924;51.458;7.046;2023-02-20T02:07:43;5.30;99.90
5796;DHT22;2924;51.458;7.046;2023-02-20T02:10:11;5.30;99.90
5796;DHT22;2924;51.458;7.046;2023-02-20T02:12:38;5.30;99.90
5796;DHT22;2924;51.458;7.046;2023-02-20T02:15:17;5.30;99.90
5796;DHT22;2924;51.458;7.046;2023-02-20T02:23:55;5.40;99.90
5796;DHT22;2924;51.458;7.046;2023-02-20T02:32:19;5.30;99.90
5796;DHT22;2924;51.458;7.046;2023-02-20T02:37:49;5.10;99.90
5796;DHT22;2924;51.458;7.046;2023-02-20T02:40:37;5.20;99.90
5796;DHT22;2924;51.458;7.046;2023-02-20T02:43:15;5.10;99.90
5796;DHT22;2924;51.458;7.046;2023-02-20T02:45:55;5.20;99.90
5796;DHT22;2924;51.458;7.046;2023-02-20T02:48:25;5.10;99.90
5796;DHT22;2924;51.458;7.046;2023-02-20T02:50:58;5.20;99.90
5796;DHT22;2924;51.458;7.046;2023-02-20T02:53:24;5.10;99.90
5796;DHT22;2924;51.458;7.046;2023-02-20T02:55:50;5.10;99.90
5796;DHT22;2924;51.458;7.046;2023-02-20T02:58:16;5.10;99.90
5796;DHT22;2924;51.458;7.046;2023-02-20T03:00:50;5.00;99.90
5796;DHT22;2924;51.458;7.046;2023-02-20T03:08:53;5.10;99.90
5796;DHT22;2924;51.458;7.046;2023-02-20T03:11:26;5.00;99.90
5796;DHT22;2924;51.458;7.046;2023-02-20T03:14:20;5.10;99.90
5796;DHT22;2924;51.458;7.046;2023-02-20T03:17:14;5.10;99.90
5796;DHT22;2924;51.458;7.046;2023-02-20T03:19:54;5.00;99.90
5796;DHT22;2924;51.458;7.046;2023-02-20T03:22:29;5.00;99.90
5796;DHT22;2924;51.458;7.046;2023-02-20T03:25:22;5.00;99.90
5796;DHT22;2924;51.458;7.046;2023-02-20T03:27:59;5.00;99.90
5796;DHT22;2924;51.458;7.046;2023-02-20T03:33:15;5.00;99.90
5796;DHT22;2924;51.458;7.046;2023-02-20T03:36:04;5.00;99.90
5796;DHT22;2924;51.458;7.046;2023-02-20T03:38:55;5.00;99.90
5796;DHT22;2924;51.458;7.046;2023-02-20T03:41:43;4.90;99.90
5796;DHT22;2924;51.458;7.046;2023-02-20T03:44:29;4.80;99.90
5796;DHT22;2924;51.458;7.046;2023-02-20T03:46:59;4.90;99.90
5796;DHT22;2924;51.458;7.046;2023-02-20T03:49:34;4.80;99.90
5796;DHT22;2924;51.458;7.046;2023-02-20T03:52:01;4.80;99.90
5796;DHT22;2924;51.458;7.046;2023-02-20T03:54:28;4.70;99.90
5796;DHT22;2924;51.458;7.046;2023-02-20T03:57:01;4.70;99.90
5796;DHT22;2924;51.458;7.046;2023-02-20T04:01:57;4.70;99.90
5796;DHT22;2924;51.458;7.046;2023-02-20T04:04:28;4.70;99.90
5796;DHT22;2924;51.458;7.046;2023-02-20T04:06:56;4.70;99.90
5796;DHT22;2924;51.458;7.046;2023-02-20T04:09:27;4.70;99.90
5796;DHT22;2924;51.458;7.046;2023-02-20T04:12:31;4.70;99.90
5796;DHT22;2924;51.458;7.046;2023-02-20T04:14:56;4.70;99.90
5796;DHT22;2924;51.458;7.046;2023-02-20T04:17:29;4.70;99.90
5796;DHT22;2924;51.458;7.046;2023-02-20T04:19:56;4.70;99.90
5796;DHT22;2924;51.458;7.046;2023-02-20T04:22:26;4.70;99.90
5796;DHT22;2924;51.458;7.046;2023-02-20T04:25:39;4.70;99.90
5796;DHT22;2924;51.458;7.046;2023-02-20T04:28:06;4.60;99.90
5796;DHT22;2924;51.458;7.046;2023-02-20T04:30:32;4.60;99.90
5796;DHT22;2924;51.458;7.046;2023-02-20T04:32:58;4.60;99.90
5796;DHT22;2924;51.458;7.046;2023-02-20T04:35:23;4.70;99.90
5796;DHT22;2924;51.458;7.046;2023-02-20T04:37:49;4.70;99.90
5796;DHT22;2924;51.458;7.046;2023-02-20T04:40:19;4.70;99.90
5796;DHT22;2924;51.458;7.046;2023-02-20T04:42:45;4.60;99.90
5796;DHT22;2924;51.458;7.046;2023-02-20T04:45:10;4.60;99.90
5796;DHT22;2924;51.458;7.046;2023-02-20T04:47:36;4.60;99.90
5796;DHT22;2924;51.458;7.046;2023-02-20T04:50:02;4.70;99.90
5796;DHT22;2924;51.458;7.046;2023-02-20T04:52:28;4.70;99.90
5796;DHT22;2924;51.458;7.046;2023-02-20T04:54:54;4.70;99.90
5796;DHT22;2924;51.458;7.046;2023-02-20T04:57:19;4.70;99.90
5796;DHT22;2924;51.458;7.046;2023-02-20T04:59:46;4.80;99.90
5796;DHT22;2924;51.458;7.046;2023-02-20T05:02:12;4.70;99.90
5796;DHT22;2924;51.458;7.046;2023-02-20T05:04:38;4.70;99.90
5796;DHT22;2924;51.458;7.046;2023-02-20T05:07:03;4.70;99.90
5796;DHT22;2924;51.458;7.046;2023-02-20T05:09:29;4.70;99.90
5796;DHT22;2924;51.458;7.046;2023-02-20T05:11:56;4.70;99.90
5796;DHT22;2924;51.458;7.046;2023-02-20T05:14:21;4.60;99.90
5796;DHT22;2924;51.458;7.046;2023-02-20T05:16:47;4.60;99.90
5796;DHT22;2924;51.458;7.046;2023-02-20T05:19:15;4.70;99.90
5796;DHT22;2924;51.458;7.046;2023-02-20T05:21:43;4.70;99.90
5796;DHT22;2924;51.458;7.046;2023-02-20T05:24:27;4.70;99.90
5796;DHT22;2924;51.458;7.046;2023-02-20T05:26:54;4.70;99.90
5796;DHT22;2924;51.458;7.046;2023-02-20T05:29:20;4.70;99.90
5796;DHT22;2924;51.458;7.046;2023-02-20T05:31:46;4.70;99.90
5796;DHT22;2924;51.458;7.046;2023-02-20T05:34:11;4.70;99.90
5796;DHT22;2924;51.458;7.046;2023-02-20T05:36:37;4.70;99.90
5796;DHT22;2924;51.458;7.046;2023-02-20T05:39:03;4.60;99.90
5796;DHT22;2924;51.458;7.046;2023-02-20T05:41:29;4.60;99.90
5796;DHT22;2924;51.458;7.046;2023-02-20T05:43:55;4.60;99.90
5796;DHT22;2924;51.458;7.046;2023-02-20T05:46:23;4.60;99.90
5796;DHT22;2924;51.458;7.046;2023-02-20T05:48:50;4.60;99.90
5796;DHT22;2924;51.458;7.046;2023-02-20T05:51:24;4.60;99.90
5796;DHT22;2924;51.458;7.046;2023-02-20T05:53:50;4.70;99.90
5796;DHT22;2924;51.458;7.046;2023-02-20T05:56:16;4.70;99.90
5796;DHT22;2924;51.458;7.046;2023-02-20T05:58:42;4.80;99.90
5796;DHT22;2924;51.458;7.046;2023-02-20T06:01:14;4.80;99.90
5796;DHT22;2924;51.458;7.046;2023-02-20T06:03:40;4.70;99.90
5796;DHT22;2924;51.458;7.046;2023-02-20T06:06:06;4.80;99.90
5796;DHT22;2924;51.458;7.046;2023-02-20T06:08:32;4.80;99.90
5796;DHT22;2924;51.458;7.046;2023-02-20T06:10:57;4.90;99.90
5796;DHT22;2924;51.458;7.046;2023-02-20T06:13:23;4.90;99.90
5796;DHT22;2924;51.458;7.046;2023-02-20T06:15:48;4.90;99.90
5796;DHT22;2924;51.458;7.046;2023-02-20T06:18:14;4.90;99.90
5796;DHT22;2924;51.458;7.046;2023-02-20T06:20:40;5.00;99.90
5796;DHT22;2924;51.458;7.046;2023-02-20T06:23:05;5.00;99.90
5796;DHT22;2924;51.458;7.046;2023-02-20T06:25:31;5.00;99.90
5796;DHT22;2924;51.458;7.046;2023-02-20T06:27:56;5.00;99.90
5796;DHT22;2924;51.458;7.046;2023-02-20T06:30:22;5.10;99.90
5796;DHT22;2924;51.458;7.046;2023-02-20T06:32:48;5.10;99.90
5796;DHT22;2924;51.458;7.046;2023-02-20T06:35:13;5.10;99.90
5796;DHT22;2924;51.458;7.046;2023-02-20T06:37:40;5.10;99.90
5796;DHT22;2924;51.458;7.046;2023-02-20T06:40:06;5.10;99.90
5796;DHT22;2924;51.458;7.046;2023-02-20T06:42:33;5.10;99.90
5796;DHT22;2924;51.458;7.046;2023-02-20T06:44:58;5.10;99.90
5796;DHT22;2924;51.458;7.046;2023-02-20T06:47:24;5.10;99.90
5796;DHT22;2924;51.458;7.046;2023-02-20T06:49:50;5.20;99.90
5796;DHT22;2924;51.458;7.046;2023-02-20T06:52:15;5.10;99.90
5796;DHT22;2924;51.458;7.046;2023-02-20T06:54:42;5.10;99.90
5796;DHT22;2924;51.458;7.046;2023-02-20T06:57:08;5.10;99.90
5796;DHT22;2924;51.458;7.046;2023-02-20T06:59:33;5.10;99.90
5796;DHT22;2924;51.458;7.046;2023-02-20T07:02:13;5.10;99.90
5796;DHT22;2924;51.458;7.046;2023-02-20T07:04:39;5.10;99.90
5796;DHT22;2924;51.458;7.046;2023-02-20T07:07:04;5.20;99.90
5796;DHT22;2924;51.458;7.046;2023-02-20T07:09:30;5.20;99.90
5796;DHT22;2924;51.458;7.046;2023-02-20T07:11:56;5.20;99.90
5796;DHT22;2924;51.458;7.046;2023-02-20T07:14:22;5.10;99.90
5796;DHT22;2924;51.458;7.046;2023-02-20T07:16:48;5.20;99.90
5796;DHT22;2924;51.458;7.046;2023-02-20T07:19:14;5.20;99.90
5796;DHT22;2924;51.458;7.046;2023-02-20T07:21:39;5.20;99.90
5796;DHT22;2924;51.458;7.046;2023-02-20T07:24:05;5.20;99.90
5796;DHT22;2924;51.458;7.046;2023-02-20T07:26:31;5.20;99.90
5796;DHT22;2924;51.458;7.046;2023-02-20T07:28:57;5.20;99.90
5796;DHT22;2924;51.458;7.046;2023-02-20T07:31:24;5.30;99.90
5796;DHT22;2924;51.458;7.046;2023-02-20T07:33:50;5.30;99.90
5796;DHT22;2924;51.458;7.046;2023-02-20T07:36:16;5.30;99.90
5796;DHT22;2924;51.458;7.046;2023-02-20T07:38:42;5.30;99.90
5796;DHT22;2924;51.458;7.046;2023-02-20T07:41:08;5.30;99.90
5796;DHT22;2924;51.458;7.046;2023-02-20T07:43:34;5.30;99.90
5796;DHT22;2924;51.458;7.046;2023-02-20T07:46:00;5.40;99.90
5796;DHT22;2924;51.458;7.046;2023-02-20T07:48:26;5.40;99.90
5796;DHT22;2924;51.458;7.046;2023-02-20T07:50:51;5.40;99.90
5796;DHT22;2924;51.458;7.046;2023-02-20T07:53:19;5.40;99.90
5796;DHT22;2924;51.458;7.046;2023-02-20T07:55:44;5.60;99.90
5796;DHT22;2924;51.458;7.046;2023-02-20T07:58:10;5.60;99.90
5796;DHT22;2924;51.458;7.046;2023-02-20T08:00:36;5.70;99.90
5796;DHT22;2924;51.458;7.046;2023-02-20T08:03:02;5.70;99.90
5796;DHT22;2924;51.458;7.046;2023-02-20T08:05:28;5.70;99.90
5796;DHT22;2924;51.458;7.046;2023-02-20T08:07:55;5.80;99.90
5796;DHT22;2924;51.458;7.046;2023-02-20T08:10:25;5.80;99.90
5796;DHT22;2924;51.458;7.046;2023-02-20T08:12:52;5.90;99.90
5796;DHT22;2924;51.458;7.046;2023-02-20T08:15:19;6.00;99.90
5796;DHT22;2924;51.458;7.046;2023-02-20T08:17:46;6.00;99.90
5796;DHT22;2924;51.458;7.046;2023-02-20T08:20:12;6.10;99.90
5796;DHT22;2924;51.458;7.046;2023-02-20T08:22:38;6.00;99.90
5796;DHT22;2924;51.458;7.046;2023-02-20T08:25:04;6.10;99.90
5796;DHT22;2924;51.458;7.046;2023-02-20T08:27:31;6.10;99.90
5796;DHT22;2924;51.458;7.046;2023-02-20T08:29:58;6.20;99.90
5796;DHT22;2924;51.458;7.046;2023-02-20T08:32:23;6.20;99.90
5796;DHT22;2924;51.458;7.046;2023-02-20T08:34:49;6.20;99.90
5796;DHT22;2924;51.458;7.046;2023-02-20T08:37:15;6.30;99.90
5796;DHT22;2924;51.458;7.046;2023-02-20T08:39:41;6.30;99.90
5796;DHT22;2924;51.458;7.046;2023-02-20T08:42:06;6.30;99.90
5796;DHT22;2924;51.458;7.046;2023-02-20T08:44:32;6.30;99.90
5796;DHT22;2924;51.458;7.046;2023-02-20T08:46:57;6.20;99.90
5796;DHT22;2924;51.458;7.046;2023-02-20T08:49:23;6.20;99.90
5796;DHT22;2924;51.458;7.046;2023-02-20T08:51:52;6.20;99.90
5796;DHT22;2924;51.458;7.046;2023-02-20T08:54:18;6.20;99.90
5796;DHT22;2924;51.458;7.046;2023-02-20T08:56:44;6.30;99.90
5796;DHT22;2924;51.458;7.046;2023-02-20T08:59:10;6.30;99.90
5796;DHT22;2924;51.458;7.046;2023-02-20T09:01:36;6.30;99.90
5796;DHT22;2924;51.458;7.046;2023-02-20T09:04:01;6.30;99.90
5796;DHT22;2924;51.458;7.046;2023-02-20T09:06:28;6.30;99.90
5796;DHT22;2924;51.458;7.046;2023-02-20T09:08:54;6.30;99.90
5796;DHT22;2924;51.458;7.046;2023-02-20T09:11:20;6.30;99.90
5796;DHT22;2924;51.458;7.046;2023-02-20T09:13:47;6.30;99.90
5796;DHT22;2924;51.458;7.046;2023-02-20T09:16:15;6.30;99.90
5796;DHT22;2924;51.458;7.046;2023-02-20T09:18:42;6.20;99.90
5796;DHT22;2924;51.458;7.046;2023-02-20T09:21:10;6.30;99.90
5796;DHT22;2924;51.458;7.046;2023-02-20T09:23:36;6.40;99.90
5796;DHT22;2924;51.458;7.046;2023-02-20T09:26:02;6.40;99.90
5796;DHT22;2924;51.458;7.046;2023-02-20T09:28:28;6.50;99.90
5796;DHT22;2924;51.458;7.046;2023-02-20T09:30:54;6.50;99.90
5796;DHT22;2924;51.458;7.046;2023-02-20T09:33:22;6.50;99.90
5796;DHT22;2924;51.458;7.046;2023-02-20T09:35:48;6.50;99.90
5796;DHT22;2924;51.458;7.046;2023-02-20T09:38:16;6.60;99.90
5796;DHT22;2924;51.458;7.046;2023-02-20T09:40:43;6.50;99.90
5796;DHT22;2924;51.458;7.046;2023-02-20T09:46:18;6.50;99.90
5796;DHT22;2924;51.458;7.046;2023-02-20T09:51:19;6.50;99.90
5796;DHT22;2924;51.458;7.046;2023-02-20T09:56:33;6.40;99.90
5796;DHT22;2924;51.458;7.046;2023-02-20T09:59:18;6.30;99.90
5796;DHT22;2924;51.458;7.046;2023-02-20T10:07:25;6.40;99.90
5796;DHT22;2924;51.458;7.046;2023-02-20T10:09:53;6.50;99.90
5796;DHT22;2924;51.458;7.046;2023-02-20T10:12:38;6.50;99.90
5796;DHT22;2924;51.458;7.046;2023-02-20T10:18:12;6.60;99.90
5796;DHT22;2924;51.458;7.046;2023-02-20T10:20:50;6.80;99.90
5796;DHT22;2924;51.458;7.046;2023-02-20T10:26:19;7.00;99.90
5796;DHT22;2924;51.458;7.046;2023-02-20T10:28:50;7.00;99.90
5796;DHT22;2924;51.458;7.046;2023-02-20T10:31:44;7.10;99.90
5796;DHT22;2924;51.458;7.046;2023-02-20T10:34:22;7.30;99.90
5796;DHT22;2924;51.458;7.046;2023-02-20T10:36:55;7.30;99.90
5796;DHT22;2924;51.458;7.046;2023-02-20T10:39:25;7.40;99.90
5796;DHT22;2924;51.458;7.046;2023-02-20T10:42:57;7.50;99.90
5796;DHT22;2924;51.458;7.046;2023-02-20T10:47:51;7.60;99.90
5796;DHT22;2924;51.458;7.046;2023-02-20T10:56:17;7.80;99.90
5796;DHT22;2924;51.458;7.046;2023-02-20T10:59:12;7.80;99.90
5796;DHT22;2924;51.458;7.046;2023-02-20T11:01:43;7.90;99.90
5796;DHT22;2924;51.458;7.046;2023-02-20T11:04:41;7.90;99.90
5796;DHT22;2924;51.458;7.046;2023-02-20T11:07:13;8.00;99.90
5796;DHT22;2924;51.458;7.046;2023-02-20T11:09:41;8.20;99.90
5796;DHT22;2924;51.458;7.046;2023-02-20T11:12:09;8.20;99.90
5796;DHT22;2924;51.458;7.046;2023-02-20T11:14:45;8.30;99.90
5796;DHT22;2924;51.458;7.046;2023-02-20T11:17:14;8.50;99.90
5796;DHT22;2924;51.458;7.046;2023-02-20T11:19:49;8.50;99.90
5796;DHT22;2924;51.458;7.046;2023-02-20T11:22:16;8.50;99.90
5796;DHT22;2924;51.458;7.046;2023-02-20T11:24:44;8.40;99.90
5796;DHT22;2924;51.458;7.046;2023-02-20T11:27:24;8.30;99.90
5796;DHT22;2924;51.458;7.046;2023-02-20T11:32:29;8.10;99.90
5796;DHT22;2924;51.458;7.046;2023-02-20T11:35:20;8.10;99.90
5796;DHT22;2924;51.458;7.046;2023-02-20T11:37:49;8.10;99.90
5796;DHT22;2924;51.458;7.046;2023-02-20T11:40:28;7.90;99.90
5796;DHT22;2924;51.458;7.046;2023-02-20T11:42:55;7.80;99.90
5796;DHT22;2924;51.458;7.046;2023-02-20T11:45:28;7.80;99.90
5796;DHT22;2924;51.458;7.046;2023-02-20T11:48:16;7.90;99.90
5796;DHT22;2924;51.458;7.046;2023-02-20T11:50:45;7.80;99.90
5796;DHT22;2924;51.458;7.046;2023-02-20T11:53:26;7.80;99.90
5796;DHT22;2924;51.458;7.046;2023-02-20T11:56:12;7.90;99.90
5796;DHT22;2924;51.458;7.046;2023-02-20T11:58:39;7.90;99.90
5796;DHT22;2924;51.458;7.046;2023-02-20T12:01:07;7.80;99.90
5796;DHT22;2924;51.458;7.046;2023-02-20T12:03:57;7.80;99.90
5796;DHT22;2924;51.458;7.046;2023-02-20T12:06:38;7.80;99.90
5796;DHT22;2924;51.458;7.046;2023-02-20T12:09:06;7.80;99.90
5796;DHT22;2924;51.458;7.046;2023-02-20T12:11:35;7.80;99.90
5796;DHT22;2924;51.458;7.046;2023-02-20T12:14:01;7.70;99.90
5796;DHT22;2924;51.458;7.046;2023-02-20T12:24:51;7.60;99.90
5796;DHT22;2924;51.458;7.046;2023-02-20T12:32:52;7.60;99.90
5796;DHT22;2924;51.458;7.046;2023-02-20T12:52:18;7.60;99.90
5796;DHT22;2924;51.458;7.046;2023-02-20T12:55:03;7.60;99.90
5796;DHT22;2924;51.458;7.046;2023-02-20T13:00:39;7.50;99.90
5796;DHT22;2924;51.458;7.046;2023-02-20T13:03:08;7.50;99.90
5796;DHT22;2924;51.458;7.046;2023-02-20T13:05:39;7.50;99.90
5796;DHT22;2924;51.458;7.046;2023-02-20T13:08:15;7.60;99.90
5796;DHT22;2924;51.458;7.046;2023-02-20T13:10:55;7.60;99.90
5796;DHT22;2924;51.458;7.046;2023-02-20T13:13:24;7.60;99.90
5796;DHT22;2924;51.458;7.046;2023-02-20T13:16:12;7.50;99.90
5796;DHT22;2924;51.458;7.046;2023-02-20T13:19:05;7.50;99.90
5796;DHT22;2924;51.458;7.046;2023-02-20T13:21:35;7.50;99.90
5796;DHT22;2924;51.458;7.046;2023-02-20T13:26:52;7.50;99.90
5796;DHT22;2924;51.458;7.046;2023-02-20T13:29:26;7.50;99.90
5796;DHT22;2924;51.458;7.046;2023-02-20T13:31:59;7.60;99.90
5796;DHT22;2924;51.458;7.046;2023-02-20T13:34:37;7.60;99.90
5796;DHT22;2924;51.458;7.046;2023-02-20T13:37:05;7.70;99.90
5796;DHT22;2924;51.458;7.046;2023-02-20T13:39:49;7.60;99.90
5796;DHT22;2924;51.458;7.046;2023-02-20T13:42:26;7.60;99.90
5796;DHT22;2924;51.458;7.046;2023-02-20T13:44:52;7.60;99.90
5796;DHT22;2924;51.458;7.046;2023-02-20T13:47:33;7.60;99.90
5796;DHT22;2924;51.458;7.046;2023-02-20T13:50:01;7.60;99.90
5796;DHT22;2924;51.458;7.046;2023-02-20T13:52:35;7.60;99.90
5796;DHT22;2924;51.458;7.046;2023-02-20T13:57:50;7.60;99.90
5796;DHT22;2924;51.458;7.046;2023-02-20T14:02:45;7.50;99.90
5796;DHT22;2924;51.458;7.046;2023-02-20T14:05:26;7.60;99.90
5796;DHT22;2924;51.458;7.046;2023-02-20T14:07:53;7.60;99.90
5796;DHT22;2924;51.458;7.046;2023-02-20T14:10:34;7.50;99.90
5796;DHT22;2924;51.458;7.046;2023-02-20T14:13:03;7.50;99.90
5796;DHT22;2924;51.458;7.046;2023-02-20T14:15:32;7.50;99.90
5796;DHT22;2924;51.458;7.046;2023-02-20T14:17:58;7.50;99.90
5796;DHT22;2924;51.458;7.046;2023-02-20T14:20:31;7.50;99.90
5796;DHT22;2924;51.458;7.046;2023-02-20T14:25:52;7.50;99.90
5796;DHT22;2924;51.458;7.046;2023-02-20T14:28:17;7.50;99.90
5796;DHT22;2924;51.458;7.046;2023-02-20T14:30:43;7.50;99.90
5796;DHT22;2924;51.458;7.046;2023-02-20T14:33:23;7.50;99.90
5796;DHT22;2924;51.458;7.046;2023-02-20T14:37:02;7.50;99.90
5796;DHT22;2924;51.458;7.046;2023-02-20T14:41:29;7.50;99.90
5796;DHT22;2924;51.458;7.046;2023-02-20T14:44:00;7.50;99.90
5796;DHT22;2924;51.458;7.046;2023-02-20T14:46:34;7.50;99.90
5796;DHT22;2924;51.458;7.046;2023-02-20T14:49:25;7.50;99.90
5796;DHT22;2924;51.458;7.046;2023-02-20T14:51:52;7.50;99.90
5796;DHT22;2924;51.458;7.046;2023-02-20T14:54:24;7.60;99.90
5796;DHT22;2924;51.458;7.046;2023-02-20T14:56:54;7.50;99.90
5796;DHT22;2924;51.458;7.046;2023-02-20T15:02:17;7.50;99.90
5796;DHT22;2924;51.458;7.046;2023-02-20T15:04:55;7.50;99.90
5796;DHT22;2924;51.458;7.046;2023-02-20T15:07:25;7.60;99.90
5796;DHT22;2924;51.458;7.046;2023-02-20T15:09:55;7.60;99.90
5796;DHT22;2924;51.458;7.046;2023-02-20T15:12:25;7.60;99.90
5796;DHT22;2924;51.458;7.046;2023-02-20T15:17:28;7.60;99.90
5796;DHT22;2924;51.458;7.046;2023-02-20T15:19:55;7.60;99.90
5796;DHT22;2924;51.458;7.046;2023-02-20T15:22:32;7.60;99.90
5796;DHT22;2924;51.458;7.046;2023-02-20T15:28:12;7.60;99.90
5796;DHT22;2924;51.458;7.046;2023-02-20T15:33:32;7.70;99.90
5796;DHT22;2924;51.458;7.046;2023-02-20T15:35:58;7.70;99.90
5796;DHT22;2924;51.458;7.046;2023-02-20T15:38:29;7.70;99.90
5796;DHT22;2924;51.458;7.046;2023-02-20T15:40:56;7.70;99.90
5796;DHT22;2924;51.458;7.046;2023-02-20T15:43:22;7.60;99.90
5796;DHT22;2924;51.458;7.046;2023-02-20T15:45:48;7.60;99.90
5796;DHT22;2924;51.458;7.046;2023-02-20T15:48:14;7.60;99.90
5796;DHT22;2924;51.458;7.046;2023-02-20T15:50:40;7.70;99.90
5796;DHT22;2924;51.458;7.046;2023-02-20T15:53:06;7.70;99.90
5796;DHT22;2924;51.458;7.046;2023-02-20T15:55:34;7.70;99.90
5796;DHT22;2924;51.458;7.046;2023-02-20T15:58:00;7.70;99.90
5796;DHT22;2924;51.458;7.046;2023-02-20T16:00:29;7.70;99.90
5796;DHT22;2924;51.458;7.046;2023-02-20T16:02:57;7.70;99.90
5796;DHT22;2924;51.458;7.046;2023-02-20T16:05:23;7.70;99.90
5796;DHT22;2924;51.458;7.046;2023-02-20T16:07:49;7.70;99.90
5796;DHT22;2924;51.458;7.046;2023-02-20T16:10:16;7.70;99.90
5796;DHT22;2924;51.458;7.046;2023-02-20T16:12:43;7.70;99.90
5796;DHT22;2924;51.458;7.046;2023-02-20T16:15:16;7.60;99.90
5796;DHT22;2924;51.458;7.046;2023-02-20T16:17:42;7.60;99.90
5796;DHT22;2924;51.458;7.046;2023-02-20T16:20:23;7.70;99.90
5796;DHT22;2924;51.458;7.046;2023-02-20T16:22:50;7.70;99.90
5796;DHT22;2924;51.458;7.046;2023-02-20T16:25:17;7.70;99.90
5796;DHT22;2924;51.458;7.046;2023-02-20T16:27:44;7.70;99.90
5796;DHT22;2924;51.458;7.046;2023-02-20T16:30:30;7.70;99.90
5796;DHT22;2924;51.458;7.046;2023-02-20T16:32:56;7.70;99.90
5796;DHT22;2924;51.458;7.046;2023-02-20T16:35:22;7.70;99.90
5796;DHT22;2924;51.458;7.046;2023-02-20T16:37:48;7.70;99.90
5796;DHT22;2924;51.458;7.046;2023-02-20T16:40:14;7.70;99.90
5796;DHT22;2924;51.458;7.046;2023-02-20T16:42:40;7.70;99.90
5796;DHT22;2924;51.458;7.046;2023-02-20T16:45:18;7.70;99.90
5796;DHT22;2924;51.458;7.046;2023-02-20T16:47:49;7.70;99.90
5796;DHT22;2924;51.458;7.046;2023-02-20T16:50:17;7.70;99.90
5796;DHT22;2924;51.458;7.046;2023-02-20T16:52:45;7.70;99.90
5796;DHT22;2924;51.458;7.046;2023-02-20T16:55:24;7.70;99.90
5796;DHT22;2924;51.458;7.046;2023-02-20T16:57:50;7.60;99.90
5796;DHT22;2924;51.458;7.046;2023-02-20T17:00:19;7.60;99.90
5796;DHT22;2924;51.458;7.046;2023-02-20T17:02:45;7.70;99.90
5796;DHT22;2924;51.458;7.046;2023-02-20T17:05:12;7.70;99.90
5796;DHT22;2924;51.458;7.046;2023-02-20T17:07:38;7.70;99.90
5796;DHT22;2924;51.458;7.046;2023-02-20T17:10:05;7.70;99.90
5796;DHT22;2924;51.458;7.046;2023-02-20T17:12:31;7.70;99.90
5796;DHT22;2924;51.458;7.046;2023-02-20T17:14:59;7.70;99.90
5796;DHT22;2924;51.458;7.046;2023-02-20T17:17:25;7.70;99.90
5796;DHT22;2924;51.458;7.046;2023-02-20T17:19:51;7.70;99.90
5796;DHT22;2924;51.458;7.046;2023-02-20T17:22:26;7.70;99.90
5796;DHT22;2924;51.458;7.046;2023-02-20T17:24:52;7.70;99.90
5796;DHT22;2924;51.458;7.046;2023-02-20T17:27:19;7.70;99.90
5796;DHT22;2924;51.458;7.046;2023-02-20T17:29:46;7.80;99.90
5796;DHT22;2924;51.458;7.046;2023-02-20T17:32:12;7.80;99.90
5796;DHT22;2924;51.458;7.046;2023-02-20T17:34:38;7.80;99.90
5796;DHT22;2924;51.458;7.046;2023-02-20T17:37:05;7.80;99.90
5796;DHT22;2924;51.458;7.046;2023-02-20T17:39:30;7.80;99.90
5796;DHT22;2924;51.458;7.046;2023-02-20T17:41:56;7.80;99.90
5796;DHT22;2924;51.458;7.046;2023-02-20T17:44:24;7.80;99.90
5796;DHT22;2924;51.458;7.046;2023-02-20T17:46:52;7.80;99.90
5796;DHT22;2924;51.458;7.046;2023-02-20T17:49:19;7.80;99.90
5796;DHT22;2924;51.458;7.046;2023-02-20T17:51:45;7.80;99.90
5796;DHT22;2924;51.458;7.046;2023-02-20T17:54:12;7.80;99.90
5796;DHT22;2924;51.458;7.046;2023-02-20T17:56:42;7.80;99.90
5796;DHT22;2924;51.458;7.046;2023-02-20T17:59:09;7.80;99.90
5796;DHT22;2924;51.458;7.046;2023-02-20T18:01:35;7.80;99.90
5796;DHT22;2924;51.458;7.046;2023-02-20T18:04:01;7.80;99.90
5796;DHT22;2924;51.458;7.046;2023-02-20T18:06:29;7.80;99.90
5796;DHT22;2924;51.458;7.046;2023-02-20T18:08:54;7.80;99.90
5796;DHT22;2924;51.458;7.046;2023-02-20T18:11:20;7.80;99.90
5796;DHT22;2924;51.458;7.046;2023-02-20T18:13:46;7.80;99.90
5796;DHT22;2924;51.458;7.046;2023-02-20T18:16:12;7.80;99.90
5796;DHT22;2924;51.458;7.046;2023-02-20T18:18:38;7.80;99.90
5796;DHT22;2924;51.458;7.046;2023-02-20T18:21:04;7.80;99.90
5796;DHT22;2924;51.458;7.046;2023-02-20T18:23:30;7.80;99.90
5796;DHT22;2924;51.458;7.046;2023-02-20T18:25:55;7.80;99.90
5796;DHT22;2924;51.458;7.046;2023-02-20T18:28:21;7.80;99.90
5796;DHT22;2924;51.458;7.046;2023-02-20T18:30:47;7.80;99.90
5796;DHT22;2924;51.458;7.046;2023-02-20T18:33:13;7.80;99.90